sensor_id;sensor_type;location;lat;lon;timestamp;P1;durP1;ratioP1;P2;durP2;ratioP2
41229;SDS011;26964;50.428;19.218;2023-07-13T00:00:34;14.3;;;7.8;;
41229;SDS011;26964;50.428;19.218;2023-07-13T00:01:24;12.4;;;7.9;;
41229;SDS011;26964;50.428;19.218;2023-07-13T00:02:24;11.2;;;8.5;;
41229;SDS011;26964;50.428;19.218;2023-07-13T00:03:24;12.1;;;7.4;;
41229;SDS011;26964;50.428;19.218;2023-07-13T00:04:24;10.7;;;8.1;;
41229;SDS011;26964;50.428;19.218;2023-07-13T00:05:24;11.4;;;7.7;;
41229;SDS011;26964;50.428;19.218;2023-07-13T00:06:24;12.6;;;7.1;;
41229;SDS011;26964;50.428;19.218;2023-07-13T00:07:24;11.8;;;7.5;;
41229;SDS011;26964;50.428;19.218;2023-07-13T00:08:24;11.2;;;7.0;;
41229;SDS011;26964;50.428;19.218;2023-07-13T00:09:24;13.9;;;7.8;;
41229;SDS011;26964;50.428;19.218;2023-07-13T00:10:24;9.5;;;7.0;;
41229;SDS011;26964;50.428;19.218;2023-07-13T00:11:24;13.2;;;7.3;;
41229;SDS011;26964;50.428;19.218;2023-07-13T00:12:26;10.6;;;6.9;;
41229;SDS011;26964;50.428;19.218;2023-07-13T00:13:24;11.4;;;6.8;;
41229;SDS011;26964;50.428;19.218;2023-07-13T00:14:24;9.6;;;7.4;;
41229;SDS011;26964;50.428;19.218;2023-07-13T00:15:25;11.0;;;7.4;;
41229;SDS011;26964;50.428;19.218;2023-07-13T00:16:24;11.4;;;7.0;;
41229;SDS011;26964;50.428;19.218;2023-07-13T00:17:24;9.8;;;6.3;;
41229;SDS011;26964;50.428;19.218;2023-07-13T00:18:24;9.8;;;6.5;;
41229;SDS011;26964;50.428;19.218;2023-07-13T00:19:24;9.7;;;6.5;;
41229;SDS011;26964;50.428;19.218;2023-07-13T00:20:24;10.5;;;6.7;;
41229;SDS011;26964;50.428;19.218;2023-07-13T00:21:24;9.2;;;6.1;;
41229;SDS011;26964;50.428;19.218;2023-07-13T00:22:24;9.9;;;5.9;;
41229;SDS011;26964;50.428;19.218;2023-07-13T00:23:24;9.5;;;6.4;;
41229;SDS011;26964;50.428;19.218;2023-07-13T00:24:24;10.8;;;7.1;;
41229;SDS011;26964;50.428;19.218;2023-07-13T00:25:24;10.2;;;6.4;;
41229;SDS011;26964;50.428;19.218;2023-07-13T00:26:24;10.4;;;7.1;;
41229;SDS011;26964;50.428;19.218;2023-07-13T00:27:24;10.1;;;6.5;;
41229;SDS011;26964;50.428;19.218;2023-07-13T00:28:24;10.3;;;6.1;;
41229;SDS011;26964;50.428;19.218;2023-07-13T00:29:25;8.8;;;6.0;;
41229;SDS011;26964;50.428;19.218;2023-07-13T00:30:24;11.1;;;6.9;;
41229;SDS011;26964;50.428;19.218;2023-07-13T00:31:24;8.9;;;6.4;;
41229;SDS011;26964;50.428;19.218;2023-07-13T00:32:24;9.9;;;6.9;;
41229;SDS011;26964;50.428;19.218;2023-07-13T00:33:24;10.6;;;6.6;;
41229;SDS011;26964;50.428;19.218;2023-07-13T00:34:24;11.0;;;6.7;;
41229;SDS011;26964;50.428;19.218;2023-07-13T00:35:25;11.1;;;7.3;;
41229;SDS011;26964;50.428;19.218;2023-07-13T00:36:24;10.1;;;7.4;;
41229;SDS011;26964;50.428;19.218;2023-07-13T00:37:24;10.2;;;6.9;;
41229;SDS011;26964;50.428;19.218;2023-07-13T00:38:24;10.4;;;7.7;;
41229;SDS011;26964;50.428;19.218;2023-07-13T00:39:24;9.5;;;6.9;;
41229;SDS011;26964;50.428;19.218;2023-07-13T00:40:24;10.7;;;7.2;;
41229;SDS011;26964;50.428;19.218;2023-07-13T00:41:24;13.0;;;8.4;;
41229;SDS011;26964;50.428;19.218;2023-07-13T00:42:24;11.6;;;7.4;;
41229;SDS011;26964;50.428;19.218;2023-07-13T00:43:25;10.2;;;6.1;;
41229;SDS011;26964;50.428;19.218;2023-07-13T00:44:24;11.0;;;6.8;;
41229;SDS011;26964;50.428;19.218;2023-07-13T00:46:25;10.0;;;7.4;;
41229;SDS011;26964;50.428;19.218;2023-07-13T00:47:24;10.6;;;6.8;;
41229;SDS011;26964;50.428;19.218;2023-07-13T00:48:26;11.7;;;6.5;;
41229;SDS011;26964;50.428;19.218;2023-07-13T00:49:25;10.0;;;7.1;;
41229;SDS011;26964;50.428;19.218;2023-07-13T00:50:24;12.6;;;7.4;;
41229;SDS011;26964;50.428;19.218;2023-07-13T00:51:26;10.3;;;6.5;;
41229;SDS011;26964;50.428;19.218;2023-07-13T00:52:24;10.6;;;6.2;;
41229;SDS011;26964;50.428;19.218;2023-07-13T00:53:24;10.5;;;6.4;;
41229;SDS011;26964;50.428;19.218;2023-07-13T00:54:26;8.6;;;6.1;;
41229;SDS011;26964;50.428;19.218;2023-07-13T00:55:24;8.3;;;6.0;;
41229;SDS011;26964;50.428;19.218;2023-07-13T00:56:24;13.5;;;6.6;;
41229;SDS011;26964;50.428;19.218;2023-07-13T00:57:24;8.1;;;6.9;;
41229;SDS011;26964;50.428;19.218;2023-07-13T00:58:24;10.3;;;6.5;;
41229;SDS011;26964;50.428;19.218;2023-07-13T00:59:24;12.1;;;6.6;;
41229;SDS011;26964;50.428;19.218;2023-07-13T01:00:24;12.7;;;6.8;;
41229;SDS011;26964;50.428;19.218;2023-07-13T01:01:24;7.8;;;6.0;;
41229;SDS011;26964;50.428;19.218;2023-07-13T01:02:24;8.8;;;6.2;;
41229;SDS011;26964;50.428;19.218;2023-07-13T01:03:24;9.2;;;6.1;;
41229;SDS011;26964;50.428;19.218;2023-07-13T01:04:24;10.3;;;5.8;;
41229;SDS011;26964;50.428;19.218;2023-07-13T01:05:24;8.9;;;5.8;;
41229;SDS011;26964;50.428;19.218;2023-07-13T01:06:24;9.1;;;6.2;;
41229;SDS011;26964;50.428;19.218;2023-07-13T01:07:24;9.9;;;6.7;;
41229;SDS011;26964;50.428;19.218;2023-07-13T01:08:24;8.3;;;5.5;;
41229;SDS011;26964;50.428;19.218;2023-07-13T01:09:25;8.8;;;5.5;;
41229;SDS011;26964;50.428;19.218;2023-07-13T01:10:24;6.7;;;5.5;;
41229;SDS011;26964;50.428;19.218;2023-07-13T01:11:24;8.6;;;5.9;;
41229;SDS011;26964;50.428;19.218;2023-07-13T01:12:24;9.3;;;5.9;;
41229;SDS011;26964;50.428;19.218;2023-07-13T01:13:24;8.3;;;6.2;;
41229;SDS011;26964;50.428;19.218;2023-07-13T01:14:24;8.7;;;6.4;;
41229;SDS011;26964;50.428;19.218;2023-07-13T01:16:25;11.2;;;6.4;;
41229;SDS011;26964;50.428;19.218;2023-07-13T01:17:24;7.4;;;5.8;;
41229;SDS011;26964;50.428;19.218;2023-07-13T01:18:24;8.5;;;6.2;;
41229;SDS011;26964;50.428;19.218;2023-07-13T01:19:27;9.2;;;6.3;;
41229;SDS011;26964;50.428;19.218;2023-07-13T01:20:24;8.1;;;6.2;;
41229;SDS011;26964;50.428;19.218;2023-07-13T01:21:24;7.5;;;5.5;;
41229;SDS011;26964;50.428;19.218;2023-07-13T01:22:24;8.8;;;6.1;;
41229;SDS011;26964;50.428;19.218;2023-07-13T01:23:24;8.8;;;6.7;;
41229;SDS011;26964;50.428;19.218;2023-07-13T01:24:24;11.3;;;6.8;;
41229;SDS011;26964;50.428;19.218;2023-07-13T01:25:24;9.3;;;6.1;;
41229;SDS011;26964;50.428;19.218;2023-07-13T01:26:24;9.9;;;7.2;;
41229;SDS011;26964;50.428;19.218;2023-07-13T01:27:25;11.7;;;7.6;;
41229;SDS011;26964;50.428;19.218;2023-07-13T01:28:25;8.0;;;6.6;;
41229;SDS011;26964;50.428;19.218;2023-07-13T01:29:24;9.2;;;6.6;;
41229;SDS011;26964;50.428;19.218;2023-07-13T01:30:24;7.9;;;6.3;;
41229;SDS011;26964;50.428;19.218;2023-07-13T01:31:24;9.1;;;6.3;;
41229;SDS011;26964;50.428;19.218;2023-07-13T01:32:24;8.2;;;6.1;;
41229;SDS011;26964;50.428;19.218;2023-07-13T01:33:24;7.7;;;6.2;;
41229;SDS011;26964;50.428;19.218;2023-07-13T01:34:24;9.6;;;6.3;;
41229;SDS011;26964;50.428;19.218;2023-07-13T01:35:24;8.2;;;6.6;;
41229;SDS011;26964;50.428;19.218;2023-07-13T01:36:24;8.7;;;6.2;;
41229;SDS011;26964;50.428;19.218;2023-07-13T01:37:24;9.6;;;6.6;;
41229;SDS011;26964;50.428;19.218;2023-07-13T01:38:24;7.6;;;5.6;;
41229;SDS011;26964;50.428;19.218;2023-07-13T01:39:24;7.5;;;6.4;;
41229;SDS011;26964;50.428;19.218;2023-07-13T01:40:25;9.0;;;6.5;;
41229;SDS011;26964;50.428;19.218;2023-07-13T01:41:24;11.2;;;6.6;;
41229;SDS011;26964;50.428;19.218;2023-07-13T01:42:24;9.2;;;6.4;;
41229;SDS011;26964;50.428;19.218;2023-07-13T01:43:24;11.8;;;7.3;;
41229;SDS011;26964;50.428;19.218;2023-07-13T01:44:24;9.8;;;7.4;;
41229;SDS011;26964;50.428;19.218;2023-07-13T01:45:24;9.9;;;6.4;;
41229;SDS011;26964;50.428;19.218;2023-07-13T01:46:24;10.7;;;6.8;;
41229;SDS011;26964;50.428;19.218;2023-07-13T01:47:24;9.2;;;6.3;;
41229;SDS011;26964;50.428;19.218;2023-07-13T01:48:24;8.2;;;6.4;;
41229;SDS011;26964;50.428;19.218;2023-07-13T01:49:24;9.9;;;6.6;;
41229;SDS011;26964;50.428;19.218;2023-07-13T01:50:24;12.4;;;6.9;;
41229;SDS011;26964;50.428;19.218;2023-07-13T01:51:24;8.6;;;6.8;;
41229;SDS011;26964;50.428;19.218;2023-07-13T01:52:24;8.9;;;7.0;;
41229;SDS011;26964;50.428;19.218;2023-07-13T01:53:24;12.1;;;6.9;;
41229;SDS011;26964;50.428;19.218;2023-07-13T01:54:24;14.1;;;7.7;;
41229;SDS011;26964;50.428;19.218;2023-07-13T01:55:24;10.1;;;7.6;;
41229;SDS011;26964;50.428;19.218;2023-07-13T01:56:24;9.6;;;7.2;;
41229;SDS011;26964;50.428;19.218;2023-07-13T01:57:24;10.4;;;6.8;;
41229;SDS011;26964;50.428;19.218;2023-07-13T01:58:24;9.6;;;6.9;;
41229;SDS011;26964;50.428;19.218;2023-07-13T01:59:24;8.8;;;6.7;;
41229;SDS011;26964;50.428;19.218;2023-07-13T02:00:24;10.8;;;7.3;;
41229;SDS011;26964;50.428;19.218;2023-07-13T02:01:24;11.0;;;6.9;;
41229;SDS011;26964;50.428;19.218;2023-07-13T02:02:24;8.8;;;7.0;;
41229;SDS011;26964;50.428;19.218;2023-07-13T02:03:24;10.1;;;6.5;;
41229;SDS011;26964;50.428;19.218;2023-07-13T02:04:24;8.8;;;7.5;;
41229;SDS011;26964;50.428;19.218;2023-07-13T02:05:24;9.1;;;7.0;;
41229;SDS011;26964;50.428;19.218;2023-07-13T02:06:24;11.1;;;7.2;;
41229;SDS011;26964;50.428;19.218;2023-07-13T02:07:24;7.9;;;6.8;;
41229;SDS011;26964;50.428;19.218;2023-07-13T02:08:24;11.9;;;6.9;;
41229;SDS011;26964;50.428;19.218;2023-07-13T02:09:24;8.8;;;6.8;;
41229;SDS011;26964;50.428;19.218;2023-07-13T02:10:24;9.2;;;7.7;;
41229;SDS011;26964;50.428;19.218;2023-07-13T02:11:24;9.1;;;6.6;;
41229;SDS011;26964;50.428;19.218;2023-07-13T02:12:24;9.8;;;6.1;;
41229;SDS011;26964;50.428;19.218;2023-07-13T02:13:24;8.2;;;6.1;;
41229;SDS011;26964;50.428;19.218;2023-07-13T02:14:24;8.1;;;6.0;;
41229;SDS011;26964;50.428;19.218;2023-07-13T02:15:24;7.7;;;6.1;;
41229;SDS011;26964;50.428;19.218;2023-07-13T02:16:24;11.1;;;6.4;;
41229;SDS011;26964;50.428;19.218;2023-07-13T02:17:24;9.0;;;6.3;;
41229;SDS011;26964;50.428;19.218;2023-07-13T02:18:24;9.8;;;7.0;;
41229;SDS011;26964;50.428;19.218;2023-07-13T02:19:24;9.6;;;6.7;;
41229;SDS011;26964;50.428;19.218;2023-07-13T02:20:24;8.9;;;7.0;;
41229;SDS011;26964;50.428;19.218;2023-07-13T02:21:24;9.7;;;7.1;;
41229;SDS011;26964;50.428;19.218;2023-07-13T02:22:24;9.6;;;7.5;;
41229;SDS011;26964;50.428;19.218;2023-07-13T02:23:24;9.6;;;6.5;;
41229;SDS011;26964;50.428;19.218;2023-07-13T02:24:24;10.3;;;7.1;;
41229;SDS011;26964;50.428;19.218;2023-07-13T02:25:24;8.3;;;6.7;;
41229;SDS011;26964;50.428;19.218;2023-07-13T02:26:24;7.5;;;6.2;;
41229;SDS011;26964;50.428;19.218;2023-07-13T02:27:24;8.9;;;6.3;;
41229;SDS011;26964;50.428;19.218;2023-07-13T02:28:24;9.0;;;6.3;;
41229;SDS011;26964;50.428;19.218;2023-07-13T02:29:24;11.1;;;7.2;;
41229;SDS011;26964;50.428;19.218;2023-07-13T02:30:24;10.1;;;7.3;;
41229;SDS011;26964;50.428;19.218;2023-07-13T02:31:24;16.2;;;7.6;;
41229;SDS011;26964;50.428;19.218;2023-07-13T02:32:24;11.8;;;7.9;;
41229;SDS011;26964;50.428;19.218;2023-07-13T02:33:24;12.8;;;7.5;;
41229;SDS011;26964;50.428;19.218;2023-07-13T02:34:24;13.6;;;8.8;;
41229;SDS011;26964;50.428;19.218;2023-07-13T02:35:24;14.9;;;9.4;;
41229;SDS011;26964;50.428;19.218;2023-07-13T02:36:24;14.2;;;9.6;;
41229;SDS011;26964;50.428;19.218;2023-07-13T02:37:24;17.1;;;9.4;;
41229;SDS011;26964;50.428;19.218;2023-07-13T02:38:24;12.3;;;8.0;;
41229;SDS011;26964;50.428;19.218;2023-07-13T02:39:24;12.7;;;8.2;;
41229;SDS011;26964;50.428;19.218;2023-07-13T02:40:24;12.0;;;8.1;;
41229;SDS011;26964;50.428;19.218;2023-07-13T02:41:24;13.9;;;9.3;;
41229;SDS011;26964;50.428;19.218;2023-07-13T02:42:24;13.5;;;8.1;;
41229;SDS011;26964;50.428;19.218;2023-07-13T02:43:24;12.1;;;8.5;;
41229;SDS011;26964;50.428;19.218;2023-07-13T02:44:24;11.0;;;8.4;;
41229;SDS011;26964;50.428;19.218;2023-07-13T02:45:24;11.7;;;8.6;;
41229;SDS011;26964;50.428;19.218;2023-07-13T02:46:24;9.3;;;7.7;;
41229;SDS011;26964;50.428;19.218;2023-07-13T02:47:24;13.2;;;8.6;;
41229;SDS011;26964;50.428;19.218;2023-07-13T02:48:24;10.3;;;8.1;;
41229;SDS011;26964;50.428;19.218;2023-07-13T02:49:24;16.2;;;8.4;;
41229;SDS011;26964;50.428;19.218;2023-07-13T02:50:24;10.9;;;8.3;;
41229;SDS011;26964;50.428;19.218;2023-07-13T02:51:24;10.2;;;7.8;;
41229;SDS011;26964;50.428;19.218;2023-07-13T02:52:24;11.3;;;8.8;;
41229;SDS011;26964;50.428;19.218;2023-07-13T02:53:24;11.8;;;8.7;;
41229;SDS011;26964;50.428;19.218;2023-07-13T02:54:24;11.4;;;8.2;;
41229;SDS011;26964;50.428;19.218;2023-07-13T02:55:24;12.6;;;8.4;;
41229;SDS011;26964;50.428;19.218;2023-07-13T02:56:25;12.5;;;9.2;;
41229;SDS011;26964;50.428;19.218;2023-07-13T02:57:24;14.2;;;8.2;;
41229;SDS011;26964;50.428;19.218;2023-07-13T02:58:24;13.7;;;8.7;;
41229;SDS011;26964;50.428;19.218;2023-07-13T02:59:24;11.6;;;8.4;;
41229;SDS011;26964;50.428;19.218;2023-07-13T03:00:24;12.5;;;8.7;;
41229;SDS011;26964;50.428;19.218;2023-07-13T03:01:24;11.5;;;8.6;;
41229;SDS011;26964;50.428;19.218;2023-07-13T03:02:24;12.3;;;8.8;;
41229;SDS011;26964;50.428;19.218;2023-07-13T03:03:24;10.8;;;8.3;;
41229;SDS011;26964;50.428;19.218;2023-07-13T03:04:24;10.8;;;8.5;;
41229;SDS011;26964;50.428;19.218;2023-07-13T03:05:24;12.5;;;8.8;;
41229;SDS011;26964;50.428;19.218;2023-07-13T03:06:24;16.3;;;9.2;;
41229;SDS011;26964;50.428;19.218;2023-07-13T03:07:24;12.4;;;9.0;;
41229;SDS011;26964;50.428;19.218;2023-07-13T03:08:25;12.0;;;8.6;;
41229;SDS011;26964;50.428;19.218;2023-07-13T03:09:24;11.2;;;8.7;;
41229;SDS011;26964;50.428;19.218;2023-07-13T03:10:24;13.5;;;8.0;;
41229;SDS011;26964;50.428;19.218;2023-07-13T03:11:24;9.7;;;8.0;;
41229;SDS011;26964;50.428;19.218;2023-07-13T03:12:24;10.5;;;8.0;;
41229;SDS011;26964;50.428;19.218;2023-07-13T03:13:24;14.8;;;8.2;;
41229;SDS011;26964;50.428;19.218;2023-07-13T03:14:24;10.3;;;8.1;;
41229;SDS011;26964;50.428;19.218;2023-07-13T03:15:24;11.3;;;8.3;;
41229;SDS011;26964;50.428;19.218;2023-07-13T03:16:24;10.5;;;8.0;;
41229;SDS011;26964;50.428;19.218;2023-07-13T03:17:24;15.3;;;8.6;;
41229;SDS011;26964;50.428;19.218;2023-07-13T03:18:25;11.5;;;8.9;;
41229;SDS011;26964;50.428;19.218;2023-07-13T03:19:24;14.5;;;8.5;;
41229;SDS011;26964;50.428;19.218;2023-07-13T03:20:24;12.4;;;8.3;;
41229;SDS011;26964;50.428;19.218;2023-07-13T03:21:24;14.2;;;8.5;;
41229;SDS011;26964;50.428;19.218;2023-07-13T03:22:24;10.6;;;8.3;;
41229;SDS011;26964;50.428;19.218;2023-07-13T03:23:24;12.4;;;8.6;;
41229;SDS011;26964;50.428;19.218;2023-07-13T03:24:24;13.7;;;8.9;;
41229;SDS011;26964;50.428;19.218;2023-07-13T03:25:24;12.6;;;8.8;;
41229;SDS011;26964;50.428;19.218;2023-07-13T03:26:24;14.0;;;8.9;;
41229;SDS011;26964;50.428;19.218;2023-07-13T03:27:24;12.6;;;9.0;;
41229;SDS011;26964;50.428;19.218;2023-07-13T03:28:24;13.2;;;9.0;;
41229;SDS011;26964;50.428;19.218;2023-07-13T03:29:24;15.2;;;9.2;;
41229;SDS011;26964;50.428;19.218;2023-07-13T03:30:24;11.9;;;9.1;;
41229;SDS011;26964;50.428;19.218;2023-07-13T03:31:25;11.4;;;8.2;;
41229;SDS011;26964;50.428;19.218;2023-07-13T03:32:24;11.2;;;8.1;;
41229;SDS011;26964;50.428;19.218;2023-07-13T03:33:24;12.4;;;9.0;;
41229;SDS011;26964;50.428;19.218;2023-07-13T03:34:24;12.5;;;8.6;;
41229;SDS011;26964;50.428;19.218;2023-07-13T03:35:24;15.4;;;9.0;;
41229;SDS011;26964;50.428;19.218;2023-07-13T03:36:25;11.7;;;8.6;;
41229;SDS011;26964;50.428;19.218;2023-07-13T03:37:24;12.1;;;8.8;;
41229;SDS011;26964;50.428;19.218;2023-07-13T03:38:24;12.7;;;9.1;;
41229;SDS011;26964;50.428;19.218;2023-07-13T03:39:24;12.6;;;9.2;;
41229;SDS011;26964;50.428;19.218;2023-07-13T03:40:24;15.9;;;8.9;;
41229;SDS011;26964;50.428;19.218;2023-07-13T03:41:24;13.0;;;8.7;;
41229;SDS011;26964;50.428;19.218;2023-07-13T03:42:24;14.2;;;8.2;;
41229;SDS011;26964;50.428;19.218;2023-07-13T03:43:24;10.4;;;8.2;;
41229;SDS011;26964;50.428;19.218;2023-07-13T03:44:24;11.4;;;8.2;;
41229;SDS011;26964;50.428;19.218;2023-07-13T03:45:24;12.5;;;8.3;;
41229;SDS011;26964;50.428;19.218;2023-07-13T03:46:24;12.3;;;8.5;;
41229;SDS011;26964;50.428;19.218;2023-07-13T03:47:24;14.9;;;9.0;;
41229;SDS011;26964;50.428;19.218;2023-07-13T03:48:24;11.5;;;8.1;;
41229;SDS011;26964;50.428;19.218;2023-07-13T03:49:24;12.2;;;9.3;;
41229;SDS011;26964;50.428;19.218;2023-07-13T03:50:24;11.9;;;8.7;;
41229;SDS011;26964;50.428;19.218;2023-07-13T03:51:24;13.3;;;8.7;;
41229;SDS011;26964;50.428;19.218;2023-07-13T03:52:24;13.2;;;8.6;;
41229;SDS011;26964;50.428;19.218;2023-07-13T03:53:24;11.3;;;8.2;;
41229;SDS011;26964;50.428;19.218;2023-07-13T03:54:24;10.7;;;8.6;;
41229;SDS011;26964;50.428;19.218;2023-07-13T03:55:24;15.3;;;8.8;;
41229;SDS011;26964;50.428;19.218;2023-07-13T03:56:24;12.7;;;9.1;;
41229;SDS011;26964;50.428;19.218;2023-07-13T03:57:24;10.5;;;8.8;;
41229;SDS011;26964;50.428;19.218;2023-07-13T03:58:27;11.6;;;8.8;;
41229;SDS011;26964;50.428;19.218;2023-07-13T03:59:24;11.5;;;9.1;;
41229;SDS011;26964;50.428;19.218;2023-07-13T04:00:24;15.0;;;9.5;;
41229;SDS011;26964;50.428;19.218;2023-07-13T04:01:24;15.1;;;9.6;;
41229;SDS011;26964;50.428;19.218;2023-07-13T04:02:24;12.4;;;9.5;;
41229;SDS011;26964;50.428;19.218;2023-07-13T04:03:24;17.1;;;10.3;;
41229;SDS011;26964;50.428;19.218;2023-07-13T04:04:24;12.4;;;9.3;;
41229;SDS011;26964;50.428;19.218;2023-07-13T04:05:24;14.4;;;9.6;;
41229;SDS011;26964;50.428;19.218;2023-07-13T04:06:25;12.3;;;9.1;;
41229;SDS011;26964;50.428;19.218;2023-07-13T04:07:24;11.5;;;9.0;;
41229;SDS011;26964;50.428;19.218;2023-07-13T04:08:24;13.8;;;9.6;;
41229;SDS011;26964;50.428;19.218;2023-07-13T04:09:24;14.6;;;10.1;;
41229;SDS011;26964;50.428;19.218;2023-07-13T04:10:24;12.1;;;9.5;;
41229;SDS011;26964;50.428;19.218;2023-07-13T04:11:25;13.9;;;9.4;;
41229;SDS011;26964;50.428;19.218;2023-07-13T04:12:24;13.8;;;9.4;;
41229;SDS011;26964;50.428;19.218;2023-07-13T04:13:24;10.8;;;9.7;;
41229;SDS011;26964;50.428;19.218;2023-07-13T04:14:24;14.6;;;10.2;;
41229;SDS011;26964;50.428;19.218;2023-07-13T04:15:24;17.4;;;10.8;;
41229;SDS011;26964;50.428;19.218;2023-07-13T04:16:24;13.2;;;10.4;;
41229;SDS011;26964;50.428;19.218;2023-07-13T04:17:24;15.8;;;10.3;;
41229;SDS011;26964;50.428;19.218;2023-07-13T04:18:24;12.7;;;10.0;;
41229;SDS011;26964;50.428;19.218;2023-07-13T04:19:24;15.8;;;9.9;;
41229;SDS011;26964;50.428;19.218;2023-07-13T04:20:24;14.0;;;9.7;;
41229;SDS011;26964;50.428;19.218;2023-07-13T04:21:24;13.4;;;10.3;;
41229;SDS011;26964;50.428;19.218;2023-07-13T04:22:24;13.8;;;9.7;;
41229;SDS011;26964;50.428;19.218;2023-07-13T04:23:24;14.1;;;9.9;;
41229;SDS011;26964;50.428;19.218;2023-07-13T04:24:24;13.8;;;10.9;;
41229;SDS011;26964;50.428;19.218;2023-07-13T04:25:24;17.1;;;10.7;;
41229;SDS011;26964;50.428;19.218;2023-07-13T04:26:24;14.1;;;10.2;;
41229;SDS011;26964;50.428;19.218;2023-07-13T04:27:24;11.4;;;10.2;;
41229;SDS011;26964;50.428;19.218;2023-07-13T04:28:24;18.1;;;10.9;;
41229;SDS011;26964;50.428;19.218;2023-07-13T04:29:24;13.4;;;10.1;;
41229;SDS011;26964;50.428;19.218;2023-07-13T04:30:24;13.9;;;10.0;;
41229;SDS011;26964;50.428;19.218;2023-07-13T04:31:24;12.1;;;10.2;;
41229;SDS011;26964;50.428;19.218;2023-07-13T04:32:24;14.7;;;10.3;;
41229;SDS011;26964;50.428;19.218;2023-07-13T04:33:24;14.4;;;10.5;;
41229;SDS011;26964;50.428;19.218;2023-07-13T04:34:24;13.0;;;9.9;;
41229;SDS011;26964;50.428;19.218;2023-07-13T04:35:24;10.7;;;9.6;;
41229;SDS011;26964;50.428;19.218;2023-07-13T04:36:24;16.7;;;10.2;;
41229;SDS011;26964;50.428;19.218;2023-07-13T04:37:24;12.5;;;9.9;;
41229;SDS011;26964;50.428;19.218;2023-07-13T04:38:24;14.1;;;10.2;;
41229;SDS011;26964;50.428;19.218;2023-07-13T04:39:24;12.1;;;9.5;;
41229;SDS011;26964;50.428;19.218;2023-07-13T04:40:24;12.8;;;9.8;;
41229;SDS011;26964;50.428;19.218;2023-07-13T04:41:24;14.1;;;10.4;;
41229;SDS011;26964;50.428;19.218;2023-07-13T04:42:24;12.4;;;10.4;;
41229;SDS011;26964;50.428;19.218;2023-07-13T04:43:24;14.7;;;9.9;;
41229;SDS011;26964;50.428;19.218;2023-07-13T04:44:24;15.0;;;10.6;;
41229;SDS011;26964;50.428;19.218;2023-07-13T04:45:24;14.0;;;10.4;;
41229;SDS011;26964;50.428;19.218;2023-07-13T04:46:24;14.9;;;11.0;;
41229;SDS011;26964;50.428;19.218;2023-07-13T04:47:24;14.4;;;9.9;;
41229;SDS011;26964;50.428;19.218;2023-07-13T04:48:24;14.5;;;11.3;;
41229;SDS011;26964;50.428;19.218;2023-07-13T04:49:24;15.1;;;11.3;;
41229;SDS011;26964;50.428;19.218;2023-07-13T04:50:24;17.3;;;11.0;;
41229;SDS011;26964;50.428;19.218;2023-07-13T04:51:24;17.3;;;11.4;;
41229;SDS011;26964;50.428;19.218;2023-07-13T04:52:24;14.4;;;11.2;;
41229;SDS011;26964;50.428;19.218;2023-07-13T04:53:24;17.7;;;11.1;;
41229;SDS011;26964;50.428;19.218;2023-07-13T04:54:24;14.2;;;11.0;;
41229;SDS011;26964;50.428;19.218;2023-07-13T04:55:24;15.4;;;10.5;;
41229;SDS011;26964;50.428;19.218;2023-07-13T04:56:24;14.6;;;10.6;;
41229;SDS011;26964;50.428;19.218;2023-07-13T04:57:24;17.4;;;11.0;;
41229;SDS011;26964;50.428;19.218;2023-07-13T04:58:24;12.7;;;10.8;;
41229;SDS011;26964;50.428;19.218;2023-07-13T04:59:24;16.9;;;11.6;;
41229;SDS011;26964;50.428;19.218;2023-07-13T05:00:24;17.1;;;11.3;;
41229;SDS011;26964;50.428;19.218;2023-07-13T05:01:24;18.3;;;11.6;;
41229;SDS011;26964;50.428;19.218;2023-07-13T05:02:24;15.8;;;11.9;;
41229;SDS011;26964;50.428;19.218;2023-07-13T05:03:24;16.7;;;12.0;;
41229;SDS011;26964;50.428;19.218;2023-07-13T05:04:24;13.6;;;11.5;;
41229;SDS011;26964;50.428;19.218;2023-07-13T05:05:24;18.0;;;11.5;;
41229;SDS011;26964;50.428;19.218;2023-07-13T05:06:24;14.8;;;11.9;;
41229;SDS011;26964;50.428;19.218;2023-07-13T05:07:24;15.5;;;11.3;;
41229;SDS011;26964;50.428;19.218;2023-07-13T05:08:24;13.4;;;11.1;;
41229;SDS011;26964;50.428;19.218;2023-07-13T05:09:24;20.6;;;12.4;;
41229;SDS011;26964;50.428;19.218;2023-07-13T05:10:24;15.9;;;10.9;;
41229;SDS011;26964;50.428;19.218;2023-07-13T05:11:24;19.5;;;12.5;;
41229;SDS011;26964;50.428;19.218;2023-07-13T05:12:24;19.0;;;12.9;;
41229;SDS011;26964;50.428;19.218;2023-07-13T05:13:23;20.0;;;12.4;;
41229;SDS011;26964;50.428;19.218;2023-07-13T05:14:24;21.3;;;12.4;;
41229;SDS011;26964;50.428;19.218;2023-07-13T05:15:24;17.1;;;12.7;;
41229;SDS011;26964;50.428;19.218;2023-07-13T05:16:24;20.1;;;13.5;;
41229;SDS011;26964;50.428;19.218;2023-07-13T05:17:24;18.4;;;12.7;;
41229;SDS011;26964;50.428;19.218;2023-07-13T05:18:24;21.8;;;13.6;;
41229;SDS011;26964;50.428;19.218;2023-07-13T05:19:24;18.1;;;12.7;;
41229;SDS011;26964;50.428;19.218;2023-07-13T05:20:24;20.6;;;13.0;;
41229;SDS011;26964;50.428;19.218;2023-07-13T05:21:24;18.5;;;12.9;;
41229;SDS011;26964;50.428;19.218;2023-07-13T05:22:24;21.3;;;12.7;;
41229;SDS011;26964;50.428;19.218;2023-07-13T05:23:24;20.1;;;12.5;;
41229;SDS011;26964;50.428;19.218;2023-07-13T05:24:24;22.7;;;12.7;;
41229;SDS011;26964;50.428;19.218;2023-07-13T05:25:23;23.8;;;13.7;;
41229;SDS011;26964;50.428;19.218;2023-07-13T05:26:24;17.5;;;12.0;;
41229;SDS011;26964;50.428;19.218;2023-07-13T05:27:24;23.2;;;13.4;;
41229;SDS011;26964;50.428;19.218;2023-07-13T05:28:24;22.2;;;12.7;;
41229;SDS011;26964;50.428;19.218;2023-07-13T05:29:24;20.1;;;12.1;;
41229;SDS011;26964;50.428;19.218;2023-07-13T05:30:24;20.9;;;12.3;;
41229;SDS011;26964;50.428;19.218;2023-07-13T05:31:24;20.1;;;12.6;;
41229;SDS011;26964;50.428;19.218;2023-07-13T05:32:24;22.1;;;13.1;;
41229;SDS011;26964;50.428;19.218;2023-07-13T05:33:24;22.1;;;12.6;;
41229;SDS011;26964;50.428;19.218;2023-07-13T05:34:24;20.9;;;13.3;;
41229;SDS011;26964;50.428;19.218;2023-07-13T05:35:24;19.4;;;12.3;;
41229;SDS011;26964;50.428;19.218;2023-07-13T05:36:24;20.3;;;12.6;;
41229;SDS011;26964;50.428;19.218;2023-07-13T05:37:24;21.5;;;12.0;;
41229;SDS011;26964;50.428;19.218;2023-07-13T05:38:24;20.2;;;11.0;;
41229;SDS011;26964;50.428;19.218;2023-07-13T05:39:24;21.5;;;12.7;;
41229;SDS011;26964;50.428;19.218;2023-07-13T05:40:23;17.7;;;11.3;;
41229;SDS011;26964;50.428;19.218;2023-07-13T05:41:24;15.7;;;11.4;;
41229;SDS011;26964;50.428;19.218;2023-07-13T05:42:24;17.0;;;11.6;;
41229;SDS011;26964;50.428;19.218;2023-07-13T05:43:24;16.4;;;10.4;;
41229;SDS011;26964;50.428;19.218;2023-07-13T05:44:24;16.6;;;10.7;;
41229;SDS011;26964;50.428;19.218;2023-07-13T05:45:24;19.2;;;9.8;;
41229;SDS011;26964;50.428;19.218;2023-07-13T05:46:24;16.0;;;10.1;;
41229;SDS011;26964;50.428;19.218;2023-07-13T05:47:23;16.6;;;8.0;;
41229;SDS011;26964;50.428;19.218;2023-07-13T05:48:24;16.0;;;9.0;;
41229;SDS011;26964;50.428;19.218;2023-07-13T05:49:24;14.2;;;9.2;;
41229;SDS011;26964;50.428;19.218;2023-07-13T05:50:48;17.4;;;9.7;;
41229;SDS011;26964;50.428;19.218;2023-07-13T05:51:48;11.8;;;6.9;;
41229;SDS011;26964;50.428;19.218;2023-07-13T05:52:48;18.7;;;8.8;;
41229;SDS011;26964;50.428;19.218;2023-07-13T05:53:48;15.2;;;8.0;;
41229;SDS011;26964;50.428;19.218;2023-07-13T05:54:48;12.7;;;7.4;;
41229;SDS011;26964;50.428;19.218;2023-07-13T05:55:48;15.3;;;8.0;;
41229;SDS011;26964;50.428;19.218;2023-07-13T05:56:48;14.4;;;8.2;;
41229;SDS011;26964;50.428;19.218;2023-07-13T05:57:48;12.2;;;7.5;;
41229;SDS011;26964;50.428;19.218;2023-07-13T05:58:49;13.1;;;8.2;;
41229;SDS011;26964;50.428;19.218;2023-07-13T05:59:48;15.8;;;7.8;;
41229;SDS011;26964;50.428;19.218;2023-07-13T06:00:48;13.0;;;8.2;;
41229;SDS011;26964;50.428;19.218;2023-07-13T06:01:48;11.5;;;6.9;;
41229;SDS011;26964;50.428;19.218;2023-07-13T06:02:48;9.1;;;6.8;;
41229;SDS011;26964;50.428;19.218;2023-07-13T06:03:48;13.8;;;7.1;;